This is the latest recevied weather packets stored in our database for station/object M3YFM-13. If no packets are shown the sender has not sent any weather packets the latest 1 day(s).
| Time | Temp. | Humidity | Pressure | Rain* | Wind** | Luminosity | Snow |
|---|---|---|---|---|---|---|---|
| 1836274843 | 15° C | 86% | - | 0 mm | 0.45 m/s, 283° | - | - |
| 1836274543 | 15° C | 86% | - | 0 mm | 0.45 m/s, 287° | - | - |
| 1836274393 | 15° C | 86% | - | 0 mm | 0.45 m/s, 260° | - | - |
| 1836274242 | 15° C | 85% | - | 0 mm | 0 m/s | - | - |
| 1836273942 | 15° C | 86% | - | 0 mm | 0 m/s | - | - |
| 1778063686 | 11.67° C | 51% | - | 0 mm | 2.24 m/s, 79° | - | - |
| 1778063386 | 12.22° C | 52% | - | 0 mm | 1.34 m/s, 83° | - | - |
| 1778063086 | 11.67° C | 50% | - | 0 mm | 1.34 m/s, 100° | - | - |
| 1778062786 | 11.67° C | 51% | - | 0 mm | 1.34 m/s, 69° | - | - |
| 1778062485 | 11.11° C | 53% | - | 0 mm | 1.34 m/s, 101° | - | - |
| 1778062185 | 11.11° C | 54% | - | 0 mm | 1.79 m/s, 107° | - | - |
| 1778061886 | 11.11° C | 56% | - | 0 mm | 1.34 m/s, 76° | - | - |
| 1778061585 | 10.56° C | 57% | - | 0 mm | 1.34 m/s, 101° | - | - |
| 1778061284 | 10.56° C | 57% | - | 0 mm | 1.34 m/s, 90° | - | - |
| 1778060984 | 10.56° C | 58% | - | 0 mm | 1.34 m/s, 105° | - | - |
| 1778060684 | 10.56° C | 59% | - | 0 mm | 1.79 m/s, 103° | - | - |
| 1778060383 | 11.11° C | 59% | - | 0 mm | 1.79 m/s, 121° | - | - |
| 1778060083 | 11.67° C | 56% | - | 0 mm | 1.34 m/s, 138° | - | - |
| 1778059783 | 11.11° C | 58% | - | 0 mm | 0.89 m/s, 73° | - | - |
| 1778059483 | 11.11° C | 59% | - | 0 mm | 1.34 m/s, 114° | - | - |
| 1778059182 | 11.67° C | 60% | - | 0 mm | 1.34 m/s, 91° | - | - |
| 1778058882 | 10.56° C | 60% | - | 0 mm | 0.45 m/s, 73° | - | - |
| 1778058582 | 10.56° C | 61% | - | 0 mm | 0.89 m/s, 60° | - | - |
| 1778058281 | 10.56° C | 62% | - | 0 mm | 1.34 m/s, 55° | - | - |
| 1778057981 | 10° C | 62% | - | 0 mm | 0.89 m/s, 86° | - | - |
* Rain since midnight (hover to see other rain measurements)
** Current wind speed in m/s (hover to see current wind gust speed)